sensor_id;sensor_type;location;lat;lon;timestamp;temperature;humidity
54684;DHT22;40582;53.100;6.686;2022-09-09T00:00:44;14.30;99.90
54684;DHT22;40582;53.100;6.686;2022-09-09T00:03:19;14.20;99.90
54684;DHT22;40582;53.100;6.686;2022-09-09T00:06:06;14.20;99.90
54684;DHT22;40582;53.100;6.686;2022-09-09T00:08:49;14.20;99.90
54684;DHT22;40582;53.100;6.686;2022-09-09T00:11:24;14.20;99.90
54684;DHT22;40582;53.100;6.686;2022-09-09T00:13:57;14.20;99.90
54684;DHT22;40582;53.100;6.686;2022-09-09T00:16:27;14.20;99.90
54684;DHT22;40582;53.100;6.686;2022-09-09T00:19:07;14.20;99.90
54684;DHT22;40582;53.100;6.686;2022-09-09T00:21:38;14.20;99.90
54684;DHT22;40582;53.100;6.686;2022-09-09T00:24:32;14.10;99.90
54684;DHT22;40582;53.100;6.686;2022-09-09T00:27:06;14.10;99.90
54684;DHT22;40582;53.100;6.686;2022-09-09T00:29:46;14.10;99.90
54684;DHT22;40582;53.100;6.686;2022-09-09T00:32:17;14.10;99.90
54684;DHT22;40582;53.100;6.686;2022-09-09T00:35:03;14.00;99.90
54684;DHT22;40582;53.100;6.686;2022-09-09T00:37:29;14.10;99.90
54684;DHT22;40582;53.100;6.686;2022-09-09T00:39:59;14.00;99.90
54684;DHT22;40582;53.100;6.686;2022-09-09T00:42:42;14.00;99.90
54684;DHT22;40582;53.100;6.686;2022-09-09T00:47:56;14.00;99.90
54684;DHT22;40582;53.100;6.686;2022-09-09T00:50:55;14.00;99.90
54684;DHT22;40582;53.100;6.686;2022-09-09T00:53:39;14.10;99.90
54684;DHT22;40582;53.100;6.686;2022-09-09T00:56:18;14.00;99.90
54684;DHT22;40582;53.100;6.686;2022-09-09T00:59:14;14.00;99.90
54684;DHT22;40582;53.100;6.686;2022-09-09T01:01:41;14.00;99.90
54684;DHT22;40582;53.100;6.686;2022-09-09T01:04:15;14.00;99.90
54684;DHT22;40582;53.100;6.686;2022-09-09T01:06:43;13.90;99.90
54684;DHT22;40582;53.100;6.686;2022-09-09T01:09:26;13.90;99.90
54684;DHT22;40582;53.100;6.686;2022-09-09T01:20:27;13.80;99.90
54684;DHT22;40582;53.100;6.686;2022-09-09T01:26:14;13.80;99.90
54684;DHT22;40582;53.100;6.686;2022-09-09T01:28:46;13.80;99.90
54684;DHT22;40582;53.100;6.686;2022-09-09T01:31:17;13.80;99.90
54684;DHT22;40582;53.100;6.686;2022-09-09T01:33:43;13.80;99.90
54684;DHT22;40582;53.100;6.686;2022-09-09T01:36:33;13.80;99.90
54684;DHT22;40582;53.100;6.686;2022-09-09T01:39:01;13.80;99.90
54684;DHT22;40582;53.100;6.686;2022-09-09T01:41:27;13.70;99.90
54684;DHT22;40582;53.100;6.686;2022-09-09T01:43:54;13.70;99.90
54684;DHT22;40582;53.100;6.686;2022-09-09T01:46:22;13.70;99.90
54684;DHT22;40582;53.100;6.686;2022-09-09T01:48:50;13.70;99.90
54684;DHT22;40582;53.100;6.686;2022-09-09T01:51:16;13.70;99.90
54684;DHT22;40582;53.100;6.686;2022-09-09T01:53:43;13.70;99.90
54684;DHT22;40582;53.100;6.686;2022-09-09T01:59:42;13.70;99.90
54684;DHT22;40582;53.100;6.686;2022-09-09T02:02:18;13.70;99.90
54684;DHT22;40582;53.100;6.686;2022-09-09T02:04:57;13.70;99.90
54684;DHT22;40582;53.100;6.686;2022-09-09T02:07:48;13.70;99.90
54684;DHT22;40582;53.100;6.686;2022-09-09T02:10:22;13.70;99.90
54684;DHT22;40582;53.100;6.686;2022-09-09T02:12:59;13.70;99.90
54684;DHT22;40582;53.100;6.686;2022-09-09T02:15:32;13.80;99.90
54684;DHT22;40582;53.100;6.686;2022-09-09T02:18:01;13.80;99.90
54684;DHT22;40582;53.100;6.686;2022-09-09T02:20:32;13.90;99.90
54684;DHT22;40582;53.100;6.686;2022-09-09T02:22:59;13.90;99.90
54684;DHT22;40582;53.100;6.686;2022-09-09T02:25:28;13.90;99.90
54684;DHT22;40582;53.100;6.686;2022-09-09T02:27:55;14.00;99.90
54684;DHT22;40582;53.100;6.686;2022-09-09T02:30:23;14.00;99.90
54684;DHT22;40582;53.100;6.686;2022-09-09T02:32:52;14.00;99.90
54684;DHT22;40582;53.100;6.686;2022-09-09T02:35:23;14.00;99.90
54684;DHT22;40582;53.100;6.686;2022-09-09T02:37:51;14.00;99.90
54684;DHT22;40582;53.100;6.686;2022-09-09T02:40:18;14.10;99.90
54684;DHT22;40582;53.100;6.686;2022-09-09T02:42:46;14.10;99.90
54684;DHT22;40582;53.100;6.686;2022-09-09T02:45:15;14.10;99.90
54684;DHT22;40582;53.100;6.686;2022-09-09T02:50:34;14.10;99.90
54684;DHT22;40582;53.100;6.686;2022-09-09T02:53:47;14.20;99.90
54684;DHT22;40582;53.100;6.686;2022-09-09T02:56:18;14.20;99.90
54684;DHT22;40582;53.100;6.686;2022-09-09T02:58:45;14.20;99.90
54684;DHT22;40582;53.100;6.686;2022-09-09T03:01:11;14.20;99.90
54684;DHT22;40582;53.100;6.686;2022-09-09T03:03:37;14.30;99.90
54684;DHT22;40582;53.100;6.686;2022-09-09T03:06:03;14.30;99.90
54684;DHT22;40582;53.100;6.686;2022-09-09T03:08:31;14.30;99.90
54684;DHT22;40582;53.100;6.686;2022-09-09T03:10:58;14.30;99.90
54684;DHT22;40582;53.100;6.686;2022-09-09T03:13:26;14.30;99.90
54684;DHT22;40582;53.100;6.686;2022-09-09T03:15:52;14.30;99.90
54684;DHT22;40582;53.100;6.686;2022-09-09T03:18:17;14.30;99.90
54684;DHT22;40582;53.100;6.686;2022-09-09T03:20:43;14.30;99.90
54684;DHT22;40582;53.100;6.686;2022-09-09T03:23:09;14.40;99.90
54684;DHT22;40582;53.100;6.686;2022-09-09T03:25:35;14.40;99.90
54684;DHT22;40582;53.100;6.686;2022-09-09T03:28:01;14.40;99.90
54684;DHT22;40582;53.100;6.686;2022-09-09T03:30:27;14.40;99.90
54684;DHT22;40582;53.100;6.686;2022-09-09T03:32:53;14.40;99.90
54684;DHT22;40582;53.100;6.686;2022-09-09T03:35:20;14.40;99.90
54684;DHT22;40582;53.100;6.686;2022-09-09T03:37:47;14.40;99.90
54684;DHT22;40582;53.100;6.686;2022-09-09T03:40:12;14.40;99.90
54684;DHT22;40582;53.100;6.686;2022-09-09T03:42:39;14.40;99.90
54684;DHT22;40582;53.100;6.686;2022-09-09T03:45:07;14.50;99.90
54684;DHT22;40582;53.100;6.686;2022-09-09T03:47:34;14.50;99.90
54684;DHT22;40582;53.100;6.686;2022-09-09T03:50:00;14.50;99.90
54684;DHT22;40582;53.100;6.686;2022-09-09T03:52:26;14.50;99.90
54684;DHT22;40582;53.100;6.686;2022-09-09T03:54:53;14.50;99.90
54684;DHT22;40582;53.100;6.686;2022-09-09T03:57:19;14.50;99.90
54684;DHT22;40582;53.100;6.686;2022-09-09T03:59:45;14.50;99.90
54684;DHT22;40582;53.100;6.686;2022-09-09T04:02:11;14.40;99.90
54684;DHT22;40582;53.100;6.686;2022-09-09T04:04:36;14.40;99.90
54684;DHT22;40582;53.100;6.686;2022-09-09T04:07:03;14.40;99.90
54684;DHT22;40582;53.100;6.686;2022-09-09T04:09:31;14.40;99.90
54684;DHT22;40582;53.100;6.686;2022-09-09T04:11:57;14.40;99.90
54684;DHT22;40582;53.100;6.686;2022-09-09T04:14:22;14.30;99.90
54684;DHT22;40582;53.100;6.686;2022-09-09T04:16:48;14.30;99.90
54684;DHT22;40582;53.100;6.686;2022-09-09T04:19:14;14.40;99.90
54684;DHT22;40582;53.100;6.686;2022-09-09T04:21:40;14.30;99.90
54684;DHT22;40582;53.100;6.686;2022-09-09T04:24:07;14.30;99.90
54684;DHT22;40582;53.100;6.686;2022-09-09T04:26:34;14.30;99.90
54684;DHT22;40582;53.100;6.686;2022-09-09T04:29:02;14.30;99.90
54684;DHT22;40582;53.100;6.686;2022-09-09T04:31:28;14.30;99.90
54684;DHT22;40582;53.100;6.686;2022-09-09T04:33:54;14.30;99.90
54684;DHT22;40582;53.100;6.686;2022-09-09T04:36:20;14.30;99.90
54684;DHT22;40582;53.100;6.686;2022-09-09T04:38:46;14.30;99.90
54684;DHT22;40582;53.100;6.686;2022-09-09T04:41:14;14.20;99.90
54684;DHT22;40582;53.100;6.686;2022-09-09T04:43:41;14.20;99.90
54684;DHT22;40582;53.100;6.686;2022-09-09T04:46:08;14.20;99.90
54684;DHT22;40582;53.100;6.686;2022-09-09T04:48:33;14.20;99.90
54684;DHT22;40582;53.100;6.686;2022-09-09T04:51:04;14.20;99.90
54684;DHT22;40582;53.100;6.686;2022-09-09T04:53:30;14.20;99.90
54684;DHT22;40582;53.100;6.686;2022-09-09T04:58:29;14.20;99.90
54684;DHT22;40582;53.100;6.686;2022-09-09T05:00:54;14.20;99.90
54684;DHT22;40582;53.100;6.686;2022-09-09T05:03:20;14.10;99.90
54684;DHT22;40582;53.100;6.686;2022-09-09T05:05:46;14.10;99.90
54684;DHT22;40582;53.100;6.686;2022-09-09T05:08:11;14.20;99.90
54684;DHT22;40582;53.100;6.686;2022-09-09T05:10:38;14.10;99.90
54684;DHT22;40582;53.100;6.686;2022-09-09T05:13:05;14.10;99.90
54684;DHT22;40582;53.100;6.686;2022-09-09T05:15:32;14.10;99.90
54684;DHT22;40582;53.100;6.686;2022-09-09T05:17:58;14.10;99.90
54684;DHT22;40582;53.100;6.686;2022-09-09T05:20:24;14.10;99.90
54684;DHT22;40582;53.100;6.686;2022-09-09T05:22:53;14.10;99.90
54684;DHT22;40582;53.100;6.686;2022-09-09T05:25:19;14.20;99.90
54684;DHT22;40582;53.100;6.686;2022-09-09T05:27:45;14.10;99.90
54684;DHT22;40582;53.100;6.686;2022-09-09T05:30:11;14.10;99.90
54684;DHT22;40582;53.100;6.686;2022-09-09T05:32:37;14.10;99.90
54684;DHT22;40582;53.100;6.686;2022-09-09T05:35:03;14.10;99.90
54684;DHT22;40582;53.100;6.686;2022-09-09T05:37:30;14.10;99.90
54684;DHT22;40582;53.100;6.686;2022-09-09T05:39:56;14.10;99.90
54684;DHT22;40582;53.100;6.686;2022-09-09T05:42:23;14.10;99.90
54684;DHT22;40582;53.100;6.686;2022-09-09T05:44:49;14.20;99.90
54684;DHT22;40582;53.100;6.686;2022-09-09T05:47:16;14.10;99.90
54684;DHT22;40582;53.100;6.686;2022-09-09T05:49:42;14.20;99.90
54684;DHT22;40582;53.100;6.686;2022-09-09T05:52:08;14.20;99.90
54684;DHT22;40582;53.100;6.686;2022-09-09T05:54:35;14.20;99.90
54684;DHT22;40582;53.100;6.686;2022-09-09T05:57:03;14.20;99.90
54684;DHT22;40582;53.100;6.686;2022-09-09T05:59:29;14.20;99.90
54684;DHT22;40582;53.100;6.686;2022-09-09T06:01:54;14.20;99.90
54684;DHT22;40582;53.100;6.686;2022-09-09T06:04:20;14.20;99.90
54684;DHT22;40582;53.100;6.686;2022-09-09T06:06:50;14.20;99.90
54684;DHT22;40582;53.100;6.686;2022-09-09T06:09:16;14.20;99.90
54684;DHT22;40582;53.100;6.686;2022-09-09T06:11:42;14.20;99.90
54684;DHT22;40582;53.100;6.686;2022-09-09T06:14:08;14.30;99.90
54684;DHT22;40582;53.100;6.686;2022-09-09T06:16:34;14.30;99.90
54684;DHT22;40582;53.100;6.686;2022-09-09T06:19:01;14.30;99.90
54684;DHT22;40582;53.100;6.686;2022-09-09T06:21:36;14.40;99.90
54684;DHT22;40582;53.100;6.686;2022-09-09T06:24:03;14.50;99.90
54684;DHT22;40582;53.100;6.686;2022-09-09T06:26:34;14.50;99.90
54684;DHT22;40582;53.100;6.686;2022-09-09T06:29:01;14.60;99.90
54684;DHT22;40582;53.100;6.686;2022-09-09T06:31:29;14.70;99.90
54684;DHT22;40582;53.100;6.686;2022-09-09T06:33:57;14.70;99.90
54684;DHT22;40582;53.100;6.686;2022-09-09T06:36:25;14.80;99.90
54684;DHT22;40582;53.100;6.686;2022-09-09T06:38:51;14.90;99.90
54684;DHT22;40582;53.100;6.686;2022-09-09T06:41:21;14.90;99.90
54684;DHT22;40582;53.100;6.686;2022-09-09T06:43:47;15.00;99.90
54684;DHT22;40582;53.100;6.686;2022-09-09T06:46:18;15.10;99.90
54684;DHT22;40582;53.100;6.686;2022-09-09T06:48:44;15.10;99.90
54684;DHT22;40582;53.100;6.686;2022-09-09T06:51:12;15.20;99.90
54684;DHT22;40582;53.100;6.686;2022-09-09T06:53:39;15.30;99.90
54684;DHT22;40582;53.100;6.686;2022-09-09T06:56:28;15.40;99.90
54684;DHT22;40582;53.100;6.686;2022-09-09T06:58:56;15.60;99.90
54684;DHT22;40582;53.100;6.686;2022-09-09T07:01:25;15.70;99.90
54684;DHT22;40582;53.100;6.686;2022-09-09T07:03:53;15.70;99.90
54684;DHT22;40582;53.100;6.686;2022-09-09T07:06:27;15.80;99.90
54684;DHT22;40582;53.100;6.686;2022-09-09T07:09:05;15.80;99.90
54684;DHT22;40582;53.100;6.686;2022-09-09T07:11:33;15.90;99.90
54684;DHT22;40582;53.100;6.686;2022-09-09T07:14:00;16.00;99.90
54684;DHT22;40582;53.100;6.686;2022-09-09T07:16:27;16.00;99.90
54684;DHT22;40582;53.100;6.686;2022-09-09T07:18:54;16.20;99.90
54684;DHT22;40582;53.100;6.686;2022-09-09T07:21:25;16.30;99.90
54684;DHT22;40582;53.100;6.686;2022-09-09T07:23:52;16.60;99.90
54684;DHT22;40582;53.100;6.686;2022-09-09T07:26:20;16.70;99.90
54684;DHT22;40582;53.100;6.686;2022-09-09T07:28:46;16.90;99.90
54684;DHT22;40582;53.100;6.686;2022-09-09T07:31:18;17.10;99.90
54684;DHT22;40582;53.100;6.686;2022-09-09T07:33:45;17.20;99.90
54684;DHT22;40582;53.100;6.686;2022-09-09T07:36:14;17.40;99.90
54684;DHT22;40582;53.100;6.686;2022-09-09T07:38:45;17.50;99.90
54684;DHT22;40582;53.100;6.686;2022-09-09T07:41:14;17.60;99.90
54684;DHT22;40582;53.100;6.686;2022-09-09T07:43:44;17.70;99.90
54684;DHT22;40582;53.100;6.686;2022-09-09T07:46:11;17.80;99.90
54684;DHT22;40582;53.100;6.686;2022-09-09T07:48:38;17.80;99.90
54684;DHT22;40582;53.100;6.686;2022-09-09T07:51:06;17.90;99.90
54684;DHT22;40582;53.100;6.686;2022-09-09T07:53:32;17.90;99.90
54684;DHT22;40582;53.100;6.686;2022-09-09T07:56:09;17.90;99.90
54684;DHT22;40582;53.100;6.686;2022-09-09T07:58:36;18.00;99.90
54684;DHT22;40582;53.100;6.686;2022-09-09T08:01:09;17.90;99.90
54684;DHT22;40582;53.100;6.686;2022-09-09T08:03:36;17.90;99.90
54684;DHT22;40582;53.100;6.686;2022-09-09T08:06:07;17.90;99.90
54684;DHT22;40582;53.100;6.686;2022-09-09T08:08:34;18.00;99.90
54684;DHT22;40582;53.100;6.686;2022-09-09T08:11:11;18.10;99.90
54684;DHT22;40582;53.100;6.686;2022-09-09T08:13:38;18.20;99.90
54684;DHT22;40582;53.100;6.686;2022-09-09T08:16:13;18.50;99.90
54684;DHT22;40582;53.100;6.686;2022-09-09T08:18:39;18.70;99.90
54684;DHT22;40582;53.100;6.686;2022-09-09T08:21:06;18.90;99.90
54684;DHT22;40582;53.100;6.686;2022-09-09T08:23:32;19.00;99.90
54684;DHT22;40582;53.100;6.686;2022-09-09T08:26:10;19.00;99.90
54684;DHT22;40582;53.100;6.686;2022-09-09T08:28:36;18.90;99.90
54684;DHT22;40582;53.100;6.686;2022-09-09T08:31:11;18.80;99.90
54684;DHT22;40582;53.100;6.686;2022-09-09T08:33:39;18.70;99.90
54684;DHT22;40582;53.100;6.686;2022-09-09T08:36:06;18.60;99.90
54684;DHT22;40582;53.100;6.686;2022-09-09T08:38:32;18.60;99.90
54684;DHT22;40582;53.100;6.686;2022-09-09T08:41:11;18.50;99.90
54684;DHT22;40582;53.100;6.686;2022-09-09T08:43:40;18.50;99.90
54684;DHT22;40582;53.100;6.686;2022-09-09T08:46:19;18.40;99.90
54684;DHT22;40582;53.100;6.686;2022-09-09T08:49:05;18.40;99.90
54684;DHT22;40582;53.100;6.686;2022-09-09T08:51:32;18.50;99.90
54684;DHT22;40582;53.100;6.686;2022-09-09T08:54:00;18.60;99.90
54684;DHT22;40582;53.100;6.686;2022-09-09T08:56:27;18.70;99.90
54684;DHT22;40582;53.100;6.686;2022-09-09T08:58:55;18.80;99.90
54684;DHT22;40582;53.100;6.686;2022-09-09T09:04:33;18.90;99.90
54684;DHT22;40582;53.100;6.686;2022-09-09T09:11:03;18.90;99.90
54684;DHT22;40582;53.100;6.686;2022-09-09T09:14:07;19.00;99.90
54684;DHT22;40582;53.100;6.686;2022-09-09T09:18:51;19.70;99.90
54684;DHT22;40582;53.100;6.686;2022-09-09T09:21:41;20.00;99.90
54684;DHT22;40582;53.100;6.686;2022-09-09T09:24:19;20.40;99.90
54684;DHT22;40582;53.100;6.686;2022-09-09T09:26:45;20.60;99.90
54684;DHT22;40582;53.100;6.686;2022-09-09T09:29:14;20.80;99.90
54684;DHT22;40582;53.100;6.686;2022-09-09T09:31:47;20.90;99.90
54684;DHT22;40582;53.100;6.686;2022-09-09T09:34:14;20.90;99.90
54684;DHT22;40582;53.100;6.686;2022-09-09T09:36:45;20.80;99.90
54684;DHT22;40582;53.100;6.686;2022-09-09T09:39:29;20.90;99.90
54684;DHT22;40582;53.100;6.686;2022-09-09T09:41:56;20.90;99.90
54684;DHT22;40582;53.100;6.686;2022-09-09T09:44:28;20.90;99.90
54684;DHT22;40582;53.100;6.686;2022-09-09T09:47:11;20.90;99.90
54684;DHT22;40582;53.100;6.686;2022-09-09T09:49:37;21.00;99.90
54684;DHT22;40582;53.100;6.686;2022-09-09T09:52:05;20.90;99.90
54684;DHT22;40582;53.100;6.686;2022-09-09T09:54:38;20.90;99.90
54684;DHT22;40582;53.100;6.686;2022-09-09T09:57:11;20.90;99.90
54684;DHT22;40582;53.100;6.686;2022-09-09T09:59:37;20.70;99.90
54684;DHT22;40582;53.100;6.686;2022-09-09T10:04:46;20.80;99.90
54684;DHT22;40582;53.100;6.686;2022-09-09T10:07:17;21.00;99.90
54684;DHT22;40582;53.100;6.686;2022-09-09T10:09:43;21.10;99.90
54684;DHT22;40582;53.100;6.686;2022-09-09T10:15:09;21.50;99.90
54684;DHT22;40582;53.100;6.686;2022-09-09T10:36:44;21.10;99.90
54684;DHT22;40582;53.100;6.686;2022-09-09T10:39:37;21.00;99.90
54684;DHT22;40582;53.100;6.686;2022-09-09T10:42:12;20.70;99.90
54684;DHT22;40582;53.100;6.686;2022-09-09T10:55:56;21.30;99.90
54684;DHT22;40582;53.100;6.686;2022-09-09T10:58:27;21.40;99.90
54684;DHT22;40582;53.100;6.686;2022-09-09T11:00:57;21.60;99.90
54684;DHT22;40582;53.100;6.686;2022-09-09T11:03:29;21.50;99.90
54684;DHT22;40582;53.100;6.686;2022-09-09T11:06:16;21.30;99.90
54684;DHT22;40582;53.100;6.686;2022-09-09T11:08:43;21.30;99.90
54684;DHT22;40582;53.100;6.686;2022-09-09T11:11:29;21.60;99.90
54684;DHT22;40582;53.100;6.686;2022-09-09T11:14:15;22.10;99.90
54684;DHT22;40582;53.100;6.686;2022-09-09T11:16:50;22.30;99.90
54684;DHT22;40582;53.100;6.686;2022-09-09T11:19:26;22.30;99.90
54684;DHT22;40582;53.100;6.686;2022-09-09T11:21:54;21.90;99.90
54684;DHT22;40582;53.100;6.686;2022-09-09T11:24:37;21.70;99.90
54684;DHT22;40582;53.100;6.686;2022-09-09T11:27:11;21.70;99.90
54684;DHT22;40582;53.100;6.686;2022-09-09T11:35:30;22.00;99.90
54684;DHT22;40582;53.100;6.686;2022-09-09T11:40:37;21.60;99.90
54684;DHT22;40582;53.100;6.686;2022-09-09T11:43:18;21.40;99.90
54684;DHT22;40582;53.100;6.686;2022-09-09T11:45:52;21.40;99.90
54684;DHT22;40582;53.100;6.686;2022-09-09T11:50:59;21.20;99.90
54684;DHT22;40582;53.100;6.686;2022-09-09T11:53:25;21.10;99.90
54684;DHT22;40582;53.100;6.686;2022-09-09T11:56:06;21.10;99.90
54684;DHT22;40582;53.100;6.686;2022-09-09T11:58:37;21.10;99.90
54684;DHT22;40582;53.100;6.686;2022-09-09T12:01:16;21.20;99.90
54684;DHT22;40582;53.100;6.686;2022-09-09T12:03:46;21.50;99.90
54684;DHT22;40582;53.100;6.686;2022-09-09T12:06:19;22.00;99.90
54684;DHT22;40582;53.100;6.686;2022-09-09T12:08:58;22.50;99.90
54684;DHT22;40582;53.100;6.686;2022-09-09T12:11:30;22.50;99.90
54684;DHT22;40582;53.100;6.686;2022-09-09T12:13:58;22.50;99.90
54684;DHT22;40582;53.100;6.686;2022-09-09T12:16:34;22.40;99.90
54684;DHT22;40582;53.100;6.686;2022-09-09T12:19:20;22.30;99.90
54684;DHT22;40582;53.100;6.686;2022-09-09T12:22:07;22.20;99.90
54684;DHT22;40582;53.100;6.686;2022-09-09T12:27:36;22.40;99.90
54684;DHT22;40582;53.100;6.686;2022-09-09T12:30:15;22.50;99.90
54684;DHT22;40582;53.100;6.686;2022-09-09T12:32:41;22.50;99.90
54684;DHT22;40582;53.100;6.686;2022-09-09T12:35:26;22.40;99.90
54684;DHT22;40582;53.100;6.686;2022-09-09T12:37:59;22.40;99.90
54684;DHT22;40582;53.100;6.686;2022-09-09T12:40:34;22.40;99.90
54684;DHT22;40582;53.100;6.686;2022-09-09T12:43:21;22.50;99.90
54684;DHT22;40582;53.100;6.686;2022-09-09T12:45:48;22.60;99.90
54684;DHT22;40582;53.100;6.686;2022-09-09T12:48:18;22.50;99.90
54684;DHT22;40582;53.100;6.686;2022-09-09T12:50:48;22.50;99.90
54684;DHT22;40582;53.100;6.686;2022-09-09T12:58:29;22.80;99.90
54684;DHT22;40582;53.100;6.686;2022-09-09T13:00:59;22.70;99.90
54684;DHT22;40582;53.100;6.686;2022-09-09T13:03:26;22.50;99.90
54684;DHT22;40582;53.100;6.686;2022-09-09T13:05:52;22.30;99.90
54684;DHT22;40582;53.100;6.686;2022-09-09T13:08:19;22.10;99.90
54684;DHT22;40582;53.100;6.686;2022-09-09T13:10:55;22.30;99.90
54684;DHT22;40582;53.100;6.686;2022-09-09T13:13:42;22.30;99.90
54684;DHT22;40582;53.100;6.686;2022-09-09T13:16:41;22.30;99.90
54684;DHT22;40582;53.100;6.686;2022-09-09T13:19:24;22.10;99.90
54684;DHT22;40582;53.100;6.686;2022-09-09T13:21:54;21.90;99.90
54684;DHT22;40582;53.100;6.686;2022-09-09T13:24:40;21.80;99.90
54684;DHT22;40582;53.100;6.686;2022-09-09T13:27:28;21.60;99.90
54684;DHT22;40582;53.100;6.686;2022-09-09T13:29:55;21.40;99.90
54684;DHT22;40582;53.100;6.686;2022-09-09T13:32:23;21.30;99.90
54684;DHT22;40582;53.100;6.686;2022-09-09T13:34:55;21.10;99.90
54684;DHT22;40582;53.100;6.686;2022-09-09T13:37:41;21.00;99.90
54684;DHT22;40582;53.100;6.686;2022-09-09T13:40:17;20.80;99.90
54684;DHT22;40582;53.100;6.686;2022-09-09T13:42:44;20.60;99.90
54684;DHT22;40582;53.100;6.686;2022-09-09T13:45:18;20.30;99.90
54684;DHT22;40582;53.100;6.686;2022-09-09T13:47:48;20.10;99.90
54684;DHT22;40582;53.100;6.686;2022-09-09T13:50:30;19.90;99.90
54684;DHT22;40582;53.100;6.686;2022-09-09T13:52:57;19.90;99.90
54684;DHT22;40582;53.100;6.686;2022-09-09T13:55:27;20.10;99.90
54684;DHT22;40582;53.100;6.686;2022-09-09T13:57:54;20.30;99.90
54684;DHT22;40582;53.100;6.686;2022-09-09T14:00:21;20.40;99.90
54684;DHT22;40582;53.100;6.686;2022-09-09T14:02:48;20.60;99.90
54684;DHT22;40582;53.100;6.686;2022-09-09T14:05:14;20.70;99.90
54684;DHT22;40582;53.100;6.686;2022-09-09T14:07:41;20.90;99.90
54684;DHT22;40582;53.100;6.686;2022-09-09T14:10:08;21.10;99.90
54684;DHT22;40582;53.100;6.686;2022-09-09T14:12:34;21.30;99.90
54684;DHT22;40582;53.100;6.686;2022-09-09T14:15:02;21.50;99.90
54684;DHT22;40582;53.100;6.686;2022-09-09T14:17:28;21.70;99.90
54684;DHT22;40582;53.100;6.686;2022-09-09T14:19:55;21.90;99.90
54684;DHT22;40582;53.100;6.686;2022-09-09T14:22:22;21.80;99.90
54684;DHT22;40582;53.100;6.686;2022-09-09T14:24:47;21.60;99.90
54684;DHT22;40582;53.100;6.686;2022-09-09T14:27:14;21.60;99.90
54684;DHT22;40582;53.100;6.686;2022-09-09T14:29:39;21.40;99.90
54684;DHT22;40582;53.100;6.686;2022-09-09T14:32:05;21.20;99.90
54684;DHT22;40582;53.100;6.686;2022-09-09T14:34:31;20.90;99.90
54684;DHT22;40582;53.100;6.686;2022-09-09T14:36:58;20.50;99.90
54684;DHT22;40582;53.100;6.686;2022-09-09T14:39:24;20.30;99.90
54684;DHT22;40582;53.100;6.686;2022-09-09T14:41:50;20.00;99.90
54684;DHT22;40582;53.100;6.686;2022-09-09T14:44:15;19.90;99.90
54684;DHT22;40582;53.100;6.686;2022-09-09T14:46:44;19.90;99.90
54684;DHT22;40582;53.100;6.686;2022-09-09T14:49:10;20.00;99.90
54684;DHT22;40582;53.100;6.686;2022-09-09T14:51:36;20.20;99.90
54684;DHT22;40582;53.100;6.686;2022-09-09T14:54:02;20.30;99.90
54684;DHT22;40582;53.100;6.686;2022-09-09T14:56:30;20.40;99.90
54684;DHT22;40582;53.100;6.686;2022-09-09T14:58:57;20.50;99.90
54684;DHT22;40582;53.100;6.686;2022-09-09T15:01:24;20.70;99.90
54684;DHT22;40582;53.100;6.686;2022-09-09T15:03:54;20.90;99.90
54684;DHT22;40582;53.100;6.686;2022-09-09T15:06:22;21.00;99.90
54684;DHT22;40582;53.100;6.686;2022-09-09T15:08:50;21.00;99.90
54684;DHT22;40582;53.100;6.686;2022-09-09T15:11:16;21.20;99.90
54684;DHT22;40582;53.100;6.686;2022-09-09T15:13:43;21.30;99.90
54684;DHT22;40582;53.100;6.686;2022-09-09T15:16:15;21.40;99.90
54684;DHT22;40582;53.100;6.686;2022-09-09T15:18:41;21.30;99.90
54684;DHT22;40582;53.100;6.686;2022-09-09T15:21:28;21.30;99.90
54684;DHT22;40582;53.100;6.686;2022-09-09T15:23:55;21.30;99.90
54684;DHT22;40582;53.100;6.686;2022-09-09T15:26:21;21.20;99.90
54684;DHT22;40582;53.100;6.686;2022-09-09T15:28:47;21.20;99.90
54684;DHT22;40582;53.100;6.686;2022-09-09T15:31:19;21.30;99.90
54684;DHT22;40582;53.100;6.686;2022-09-09T15:33:56;21.20;99.90
54684;DHT22;40582;53.100;6.686;2022-09-09T15:36:28;21.10;99.90
54684;DHT22;40582;53.100;6.686;2022-09-09T15:38:54;21.00;99.90
54684;DHT22;40582;53.100;6.686;2022-09-09T15:41:21;20.90;99.90
54684;DHT22;40582;53.100;6.686;2022-09-09T15:43:49;20.70;99.90
54684;DHT22;40582;53.100;6.686;2022-09-09T15:49:10;20.20;99.90
54684;DHT22;40582;53.100;6.686;2022-09-09T15:51:38;20.00;99.90
54684;DHT22;40582;53.100;6.686;2022-09-09T15:54:04;19.80;99.90
54684;DHT22;40582;53.100;6.686;2022-09-09T15:56:31;19.60;99.90
54684;DHT22;40582;53.100;6.686;2022-09-09T15:58:58;19.40;99.90
54684;DHT22;40582;53.100;6.686;2022-09-09T16:01:25;19.30;99.90
54684;DHT22;40582;53.100;6.686;2022-09-09T16:03:51;19.10;99.90
54684;DHT22;40582;53.100;6.686;2022-09-09T16:06:19;19.00;99.90
54684;DHT22;40582;53.100;6.686;2022-09-09T16:08:48;19.00;99.90
54684;DHT22;40582;53.100;6.686;2022-09-09T16:11:26;18.90;99.90
54684;DHT22;40582;53.100;6.686;2022-09-09T16:13:53;18.80;99.90
54684;DHT22;40582;53.100;6.686;2022-09-09T16:16:22;18.80;99.90
54684;DHT22;40582;53.100;6.686;2022-09-09T16:18:50;18.70;99.90
54684;DHT22;40582;53.100;6.686;2022-09-09T16:21:22;18.90;99.90
54684;DHT22;40582;53.100;6.686;2022-09-09T16:23:51;18.90;99.90
54684;DHT22;40582;53.100;6.686;2022-09-09T16:26:18;19.00;99.90
54684;DHT22;40582;53.100;6.686;2022-09-09T16:28:44;19.00;99.90
54684;DHT22;40582;53.100;6.686;2022-09-09T16:31:17;19.00;99.90
54684;DHT22;40582;53.100;6.686;2022-09-09T16:33:44;19.00;99.90
54684;DHT22;40582;53.100;6.686;2022-09-09T16:36:12;18.90;99.90
54684;DHT22;40582;53.100;6.686;2022-09-09T16:38:39;19.00;99.90
54684;DHT22;40582;53.100;6.686;2022-09-09T16:41:06;19.00;99.90
54684;DHT22;40582;53.100;6.686;2022-09-09T16:43:33;19.00;99.90
54684;DHT22;40582;53.100;6.686;2022-09-09T16:46:00;18.90;99.90
54684;DHT22;40582;53.100;6.686;2022-09-09T16:48:35;18.80;99.90
54684;DHT22;40582;53.100;6.686;2022-09-09T16:51:04;18.60;99.90
54684;DHT22;40582;53.100;6.686;2022-09-09T16:53:30;18.50;99.90
54684;DHT22;40582;53.100;6.686;2022-09-09T16:55:55;18.40;99.90
54684;DHT22;40582;53.100;6.686;2022-09-09T16:58:21;18.30;99.90
54684;DHT22;40582;53.100;6.686;2022-09-09T17:00:47;18.30;99.90
54684;DHT22;40582;53.100;6.686;2022-09-09T17:03:14;18.20;99.90
54684;DHT22;40582;53.100;6.686;2022-09-09T17:05:40;18.10;99.90
54684;DHT22;40582;53.100;6.686;2022-09-09T17:08:07;18.10;99.90
54684;DHT22;40582;53.100;6.686;2022-09-09T17:10:32;18.10;99.90
54684;DHT22;40582;53.100;6.686;2022-09-09T17:12:58;18.10;99.90
54684;DHT22;40582;53.100;6.686;2022-09-09T17:15:24;18.10;99.90
54684;DHT22;40582;53.100;6.686;2022-09-09T17:17:50;18.10;99.90
54684;DHT22;40582;53.100;6.686;2022-09-09T17:20:18;18.10;99.90